sensor_id;sensor_type;location;lat;lon;timestamp;temperature;humidity
70076;DHT22;63241;51.056;3.698;2023-08-21T00:23:21;19.10;93.90
70076;DHT22;63241;51.056;3.698;2023-08-21T00:26:20;19.10;94.20
70076;DHT22;63241;51.056;3.698;2023-08-21T00:29:07;19.00;94.30
70076;DHT22;63241;51.056;3.698;2023-08-21T00:31:53;19.00;94.50
70076;DHT22;63241;51.056;3.698;2023-08-21T00:34:39;19.00;94.70
70076;DHT22;63241;51.056;3.698;2023-08-21T00:37:49;19.00;94.50
70076;DHT22;63241;51.056;3.698;2023-08-21T00:40:45;19.00;94.50
70076;DHT22;63241;51.056;3.698;2023-08-21T00:43:32;19.00;94.70
70076;DHT22;63241;51.056;3.698;2023-08-21T00:46:18;18.90;94.70
70076;DHT22;63241;51.056;3.698;2023-08-21T00:52:52;18.80;94.90
70076;DHT22;63241;51.056;3.698;2023-08-21T00:55:39;18.80;95.20
70076;DHT22;63241;51.056;3.698;2023-08-21T00:58:25;18.90;95.40
70076;DHT22;63241;51.056;3.698;2023-08-21T01:01:13;19.00;95.60
70076;DHT22;63241;51.056;3.698;2023-08-21T01:08:13;19.20;95.80
70076;DHT22;63241;51.056;3.698;2023-08-21T01:11:31;19.20;95.60
70076;DHT22;63241;51.056;3.698;2023-08-21T01:21:05;19.40;95.60
70076;DHT22;63241;51.056;3.698;2023-08-21T01:23:50;19.50;95.70
70076;DHT22;63241;51.056;3.698;2023-08-21T01:26:37;19.60;95.80
70076;DHT22;63241;51.056;3.698;2023-08-21T02:09:57;19.70;96.00
70076;DHT22;63241;51.056;3.698;2023-08-21T02:12:49;19.60;96.70
70076;DHT22;63241;51.056;3.698;2023-08-21T02:15:47;19.60;96.80
70076;DHT22;63241;51.056;3.698;2023-08-21T02:18:34;19.50;96.80
70076;DHT22;63241;51.056;3.698;2023-08-21T02:21:20;19.50;96.80
70076;DHT22;63241;51.056;3.698;2023-08-21T02:24:26;19.50;97.00
70076;DHT22;63241;51.056;3.698;2023-08-21T02:27:32;19.40;96.90
70076;DHT22;63241;51.056;3.698;2023-08-21T02:30:19;19.40;97.10
70076;DHT22;63241;51.056;3.698;2023-08-21T03:27:18;18.40;99.90
70076;DHT22;63241;51.056;3.698;2023-08-21T03:30:05;18.30;99.80
70076;DHT22;63241;51.056;3.698;2023-08-21T03:36:54;18.30;99.90
70076;DHT22;63241;51.056;3.698;2023-08-21T03:39:40;18.30;99.90
70076;DHT22;63241;51.056;3.698;2023-08-21T03:42:27;18.30;99.90
70076;DHT22;63241;51.056;3.698;2023-08-21T03:45:13;18.30;99.90
70076;DHT22;63241;51.056;3.698;2023-08-21T03:51:45;18.40;99.90
70076;DHT22;63241;51.056;3.698;2023-08-21T03:54:32;18.40;99.90
70076;DHT22;63241;51.056;3.698;2023-08-21T03:57:18;18.30;99.90
70076;DHT22;63241;51.056;3.698;2023-08-21T04:04:09;18.10;99.90
70076;DHT22;63241;51.056;3.698;2023-08-21T04:06:56;18.00;99.90
70076;DHT22;63241;51.056;3.698;2023-08-21T04:09:42;17.90;99.90
70076;DHT22;63241;51.056;3.698;2023-08-21T04:12:51;17.80;99.90
70076;DHT22;63241;51.056;3.698;2023-08-21T04:15:37;17.80;99.90
70076;DHT22;63241;51.056;3.698;2023-08-21T04:18:23;17.60;99.90
70076;DHT22;63241;51.056;3.698;2023-08-21T04:21:10;17.60;99.90
70076;DHT22;63241;51.056;3.698;2023-08-21T04:24:30;17.50;99.90
70076;DHT22;63241;51.056;3.698;2023-08-21T04:27:27;17.50;99.90
70076;DHT22;63241;51.056;3.698;2023-08-21T04:30:13;17.40;99.90
70076;DHT22;63241;51.056;3.698;2023-08-21T04:33:00;17.30;99.90
70076;DHT22;63241;51.056;3.698;2023-08-21T04:36:16;17.30;99.90
70076;DHT22;63241;51.056;3.698;2023-08-21T04:39:26;17.30;99.90
70076;DHT22;63241;51.056;3.698;2023-08-21T04:42:12;17.30;99.90
70076;DHT22;63241;51.056;3.698;2023-08-21T04:44:59;17.30;99.90
70076;DHT22;63241;51.056;3.698;2023-08-21T04:47:45;17.20;99.90
70076;DHT22;63241;51.056;3.698;2023-08-21T04:54:39;17.30;99.90
70076;DHT22;63241;51.056;3.698;2023-08-21T04:57:25;17.30;99.90
70076;DHT22;63241;51.056;3.698;2023-08-21T05:00:11;17.30;99.90
70076;DHT22;63241;51.056;3.698;2023-08-21T06:46:14;38.20;36.50
70076;DHT22;63241;51.056;3.698;2023-08-21T06:49:00;38.80;36.50
70076;DHT22;63241;51.056;3.698;2023-08-21T06:55:51;41.10;32.90
70076;DHT22;63241;51.056;3.698;2023-08-21T06:58:31;41.50;31.00
70076;DHT22;63241;51.056;3.698;2023-08-21T07:01:17;41.70;31.20
70076;DHT22;63241;51.056;3.698;2023-08-21T07:04:04;42.20;30.30
70076;DHT22;63241;51.056;3.698;2023-08-21T07:06:58;42.90;29.90
70076;DHT22;63241;51.056;3.698;2023-08-21T07:10:11;43.60;28.80
70076;DHT22;63241;51.056;3.698;2023-08-21T07:13:05;44.30;28.20
70076;DHT22;63241;51.056;3.698;2023-08-21T07:15:53;45.30;27.40
70076;DHT22;63241;51.056;3.698;2023-08-21T07:18:40;46.10;27.10
70076;DHT22;63241;51.056;3.698;2023-08-21T07:21:50;46.20;26.80
70076;DHT22;63241;51.056;3.698;2023-08-21T07:24:56;46.70;26.00
70076;DHT22;63241;51.056;3.698;2023-08-21T07:27:41;46.70;26.00
70076;DHT22;63241;51.056;3.698;2023-08-21T07:30:28;47.20;25.70
70076;DHT22;63241;51.056;3.698;2023-08-21T07:33:16;47.20;25.50
70076;DHT22;63241;51.056;3.698;2023-08-21T07:36:31;47.80;25.50
70076;DHT22;63241;51.056;3.698;2023-08-21T07:39:17;47.20;24.90
70076;DHT22;63241;51.056;3.698;2023-08-21T07:42:08;47.90;25.00
70076;DHT22;63241;51.056;3.698;2023-08-21T07:44:51;48.60;24.70
70076;DHT22;63241;51.056;3.698;2023-08-21T07:51:08;48.90;24.40
70076;DHT22;63241;51.056;3.698;2023-08-21T07:53:54;48.20;24.60
70076;DHT22;63241;51.056;3.698;2023-08-21T07:56:40;46.20;25.60
70076;DHT22;63241;51.056;3.698;2023-08-21T07:59:27;45.70;26.60
70076;DHT22;63241;51.056;3.698;2023-08-21T08:02:34;45.50;27.00
70076;DHT22;63241;51.056;3.698;2023-08-21T08:05:40;46.90;26.20
70076;DHT22;63241;51.056;3.698;2023-08-21T08:08:27;47.40;25.00
70076;DHT22;63241;51.056;3.698;2023-08-21T08:11:14;47.80;25.00
70076;DHT22;63241;51.056;3.698;2023-08-21T08:14:09;49.40;24.50
70076;DHT22;63241;51.056;3.698;2023-08-21T08:17:08;49.60;23.70
70076;DHT22;63241;51.056;3.698;2023-08-21T08:19:54;49.80;23.30
70076;DHT22;63241;51.056;3.698;2023-08-21T08:22:41;50.60;23.20
70076;DHT22;63241;51.056;3.698;2023-08-21T08:25:27;51.20;22.50
70076;DHT22;63241;51.056;3.698;2023-08-21T08:28:31;52.00;22.00
70076;DHT22;63241;51.056;3.698;2023-08-21T08:31:36;51.40;22.30
70076;DHT22;63241;51.056;3.698;2023-08-21T08:34:23;51.80;22.20
70076;DHT22;63241;51.056;3.698;2023-08-21T08:37:09;50.90;22.10
70076;DHT22;63241;51.056;3.698;2023-08-21T08:39:56;51.20;22.50
70076;DHT22;63241;51.056;3.698;2023-08-21T08:42:51;51.90;22.30
70076;DHT22;63241;51.056;3.698;2023-08-21T08:49:02;52.60;21.50
70076;DHT22;63241;51.056;3.698;2023-08-21T08:51:50;53.00;21.30
70076;DHT22;63241;51.056;3.698;2023-08-21T08:54:44;54.30;20.80
70076;DHT22;63241;51.056;3.698;2023-08-21T08:57:45;53.60;20.90
70076;DHT22;63241;51.056;3.698;2023-08-21T09:00:32;53.20;21.10
70076;DHT22;63241;51.056;3.698;2023-08-21T09:03:18;52.80;21.30
70076;DHT22;63241;51.056;3.698;2023-08-21T09:06:04;53.70;20.80
70076;DHT22;63241;51.056;3.698;2023-08-21T09:09:11;54.00;20.30
70076;DHT22;63241;51.056;3.698;2023-08-21T09:12:14;53.70;20.10
70076;DHT22;63241;51.056;3.698;2023-08-21T09:15:05;54.10;20.30
70076;DHT22;63241;51.056;3.698;2023-08-21T09:17:55;54.00;20.20
70076;DHT22;63241;51.056;3.698;2023-08-21T09:20:41;53.20;20.70
70076;DHT22;63241;51.056;3.698;2023-08-21T09:23:49;52.30;21.30
70076;DHT22;63241;51.056;3.698;2023-08-21T09:27:01;51.50;21.80
70076;DHT22;63241;51.056;3.698;2023-08-21T09:29:48;52.30;21.60
70076;DHT22;63241;51.056;3.698;2023-08-21T09:32:55;52.20;21.70
70076;DHT22;63241;51.056;3.698;2023-08-21T09:36:16;52.80;20.60
70076;DHT22;63241;51.056;3.698;2023-08-21T09:39:15;53.50;20.00
70076;DHT22;63241;51.056;3.698;2023-08-21T09:42:06;53.60;19.80
70076;DHT22;63241;51.056;3.698;2023-08-21T09:44:53;53.20;20.50
70076;DHT22;63241;51.056;3.698;2023-08-21T09:47:40;52.10;20.90
70076;DHT22;63241;51.056;3.698;2023-08-21T09:51:01;53.00;20.60
70076;DHT22;63241;51.056;3.698;2023-08-21T09:53:54;53.80;19.30
70076;DHT22;63241;51.056;3.698;2023-08-21T09:56:42;54.20;19.50
70076;DHT22;63241;51.056;3.698;2023-08-21T09:59:30;53.90;19.10
70076;DHT22;63241;51.056;3.698;2023-08-21T10:02:17;54.60;19.40
70076;DHT22;63241;51.056;3.698;2023-08-21T10:05:22;54.80;19.30
70076;DHT22;63241;51.056;3.698;2023-08-21T10:08:24;54.10;19.30
70076;DHT22;63241;51.056;3.698;2023-08-21T10:11:10;54.40;19.20
70076;DHT22;63241;51.056;3.698;2023-08-21T10:14:11;54.30;19.30
70076;DHT22;63241;51.056;3.698;2023-08-21T10:16:58;54.30;19.20
70076;DHT22;63241;51.056;3.698;2023-08-21T10:19:55;54.40;19.30
70076;DHT22;63241;51.056;3.698;2023-08-21T10:33:47;54.20;18.80
70076;DHT22;63241;51.056;3.698;2023-08-21T10:39:57;53.30;19.30
70076;DHT22;63241;51.056;3.698;2023-08-21T10:42:43;53.20;19.60
70076;DHT22;63241;51.056;3.698;2023-08-21T10:45:30;53.30;19.00
70076;DHT22;63241;51.056;3.698;2023-08-21T10:48:16;53.00;19.30
70076;DHT22;63241;51.056;3.698;2023-08-21T10:51:26;53.00;19.70
70076;DHT22;63241;51.056;3.698;2023-08-21T10:54:21;53.40;19.50
70076;DHT22;63241;51.056;3.698;2023-08-21T10:57:11;50.70;20.10
70076;DHT22;63241;51.056;3.698;2023-08-21T10:59:59;51.50;20.40
70076;DHT22;63241;51.056;3.698;2023-08-21T11:02:47;52.20;19.90
70076;DHT22;63241;51.056;3.698;2023-08-21T11:05:39;52.00;20.40
70076;DHT22;63241;51.056;3.698;2023-08-21T11:08:37;51.20;20.00
70076;DHT22;63241;51.056;3.698;2023-08-21T11:11:23;51.80;19.80
70076;DHT22;63241;51.056;3.698;2023-08-21T11:14:10;51.10;19.80
70076;DHT22;63241;51.056;3.698;2023-08-21T11:17:25;51.90;19.90
70076;DHT22;63241;51.056;3.698;2023-08-21T11:20:34;51.90;19.40
70076;DHT22;63241;51.056;3.698;2023-08-21T11:23:20;51.90;19.90
70076;DHT22;63241;51.056;3.698;2023-08-21T11:26:09;52.40;19.70
70076;DHT22;63241;51.056;3.698;2023-08-21T11:28:56;51.30;20.30
70076;DHT22;63241;51.056;3.698;2023-08-21T11:32:11;51.20;20.60
70076;DHT22;63241;51.056;3.698;2023-08-21T11:35:15;51.50;19.60
70076;DHT22;63241;51.056;3.698;2023-08-21T11:38:02;52.30;19.40
70076;DHT22;63241;51.056;3.698;2023-08-21T11:41:02;51.90;19.00
70076;DHT22;63241;51.056;3.698;2023-08-21T11:43:49;51.40;19.00
70076;DHT22;63241;51.056;3.698;2023-08-21T11:46:45;50.80;20.00
70076;DHT22;63241;51.056;3.698;2023-08-21T11:49:36;50.50;20.20
70076;DHT22;63241;51.056;3.698;2023-08-21T11:52:26;51.10;20.00
70076;DHT22;63241;51.056;3.698;2023-08-21T11:55:14;51.00;19.90
70076;DHT22;63241;51.056;3.698;2023-08-21T11:58:11;50.30;20.60
70076;DHT22;63241;51.056;3.698;2023-08-21T12:01:05;50.10;20.60
70076;DHT22;63241;51.056;3.698;2023-08-21T12:03:55;50.40;20.40
70076;DHT22;63241;51.056;3.698;2023-08-21T12:06:45;50.50;20.90
70076;DHT22;63241;51.056;3.698;2023-08-21T12:09:31;49.90;21.30
70076;DHT22;63241;51.056;3.698;2023-08-21T12:12:22;49.50;21.40
70076;DHT22;63241;51.056;3.698;2023-08-21T12:15:20;48.10;21.70
70076;DHT22;63241;51.056;3.698;2023-08-21T12:18:08;48.50;22.60
70076;DHT22;63241;51.056;3.698;2023-08-21T12:20:54;49.00;21.70
70076;DHT22;63241;51.056;3.698;2023-08-21T12:23:40;49.80;21.50
70076;DHT22;63241;51.056;3.698;2023-08-21T12:26:49;49.40;21.70
70076;DHT22;63241;51.056;3.698;2023-08-21T12:29:40;49.40;20.90
70076;DHT22;63241;51.056;3.698;2023-08-21T12:32:30;48.70;22.20
70076;DHT22;63241;51.056;3.698;2023-08-21T12:35:16;49.00;22.30
70076;DHT22;63241;51.056;3.698;2023-08-21T12:38:10;48.60;21.90
70076;DHT22;63241;51.056;3.698;2023-08-21T12:41:01;47.70;22.50
70076;DHT22;63241;51.056;3.698;2023-08-21T12:44:03;48.00;22.40
70076;DHT22;63241;51.056;3.698;2023-08-21T12:46:51;48.40;22.80
70076;DHT22;63241;51.056;3.698;2023-08-21T12:49:37;48.40;22.70
70076;DHT22;63241;51.056;3.698;2023-08-21T12:52:25;48.50;22.50
70076;DHT22;63241;51.056;3.698;2023-08-21T12:55:25;48.50;22.30
70076;DHT22;63241;51.056;3.698;2023-08-21T12:58:14;48.60;22.10
70076;DHT22;63241;51.056;3.698;2023-08-21T13:01:10;48.50;22.20
70076;DHT22;63241;51.056;3.698;2023-08-21T13:04:01;48.80;21.90
70076;DHT22;63241;51.056;3.698;2023-08-21T13:06:53;48.80;21.30
70076;DHT22;63241;51.056;3.698;2023-08-21T13:09:50;48.20;21.60
70076;DHT22;63241;51.056;3.698;2023-08-21T13:12:37;48.60;21.60
70076;DHT22;63241;51.056;3.698;2023-08-21T13:15:24;48.00;22.00
70076;DHT22;63241;51.056;3.698;2023-08-21T13:18:11;48.00;22.10
70076;DHT22;63241;51.056;3.698;2023-08-21T13:21:05;48.80;21.40
70076;DHT22;63241;51.056;3.698;2023-08-21T13:23:56;48.10;20.90
70076;DHT22;63241;51.056;3.698;2023-08-21T13:26:48;46.30;22.50
70076;DHT22;63241;51.056;3.698;2023-08-21T13:29:34;46.00;23.10
70076;DHT22;63241;51.056;3.698;2023-08-21T13:32:20;45.50;23.70
70076;DHT22;63241;51.056;3.698;2023-08-21T13:35:08;45.10;23.80
70076;DHT22;63241;51.056;3.698;2023-08-21T13:38:05;45.10;23.20
70076;DHT22;63241;51.056;3.698;2023-08-21T13:40:56;43.80;23.80
70076;DHT22;63241;51.056;3.698;2023-08-21T13:43:42;43.70;24.30
70076;DHT22;63241;51.056;3.698;2023-08-21T13:46:28;43.30;24.00
70076;DHT22;63241;51.056;3.698;2023-08-21T13:49:33;43.20;24.40
70076;DHT22;63241;51.056;3.698;2023-08-21T13:52:46;43.70;23.60
70076;DHT22;63241;51.056;3.698;2023-08-21T13:55:32;43.70;24.40
70076;DHT22;63241;51.056;3.698;2023-08-21T13:58:18;43.50;24.60
70076;DHT22;63241;51.056;3.698;2023-08-21T14:01:14;43.40;24.30
70076;DHT22;63241;51.056;3.698;2023-08-21T14:04:24;43.50;24.30
70076;DHT22;63241;51.056;3.698;2023-08-21T14:07:10;42.20;25.50
70076;DHT22;63241;51.056;3.698;2023-08-21T14:09:56;40.30;27.20
70076;DHT22;63241;51.056;3.698;2023-08-21T14:12:43;39.40;27.50
70076;DHT22;63241;51.056;3.698;2023-08-21T14:15:36;38.80;28.20
70076;DHT22;63241;51.056;3.698;2023-08-21T14:18:33;38.20;28.10
70076;DHT22;63241;51.056;3.698;2023-08-21T14:21:19;36.90;28.90
70076;DHT22;63241;51.056;3.698;2023-08-21T14:24:05;36.30;30.10
70076;DHT22;63241;51.056;3.698;2023-08-21T14:26:53;35.60;30.10
70076;DHT22;63241;51.056;3.698;2023-08-21T14:33:40;34.60;32.80
70076;DHT22;63241;51.056;3.698;2023-08-21T14:36:27;33.80;33.30
70076;DHT22;63241;51.056;3.698;2023-08-21T14:39:13;33.40;34.70
70076;DHT22;63241;51.056;3.698;2023-08-21T14:42:08;33.20;36.00
70076;DHT22;63241;51.056;3.698;2023-08-21T14:45:18;33.10;36.60
70076;DHT22;63241;51.056;3.698;2023-08-21T14:48:04;32.90;37.10
70076;DHT22;63241;51.056;3.698;2023-08-21T14:50:50;32.60;37.70
70076;DHT22;63241;51.056;3.698;2023-08-21T14:53:37;32.30;39.30
70076;DHT22;63241;51.056;3.698;2023-08-21T14:56:59;32.30;39.00
70076;DHT22;63241;51.056;3.698;2023-08-21T15:00:21;32.20;40.10
70076;DHT22;63241;51.056;3.698;2023-08-21T15:03:08;31.80;40.40
70076;DHT22;63241;51.056;3.698;2023-08-21T15:05:54;31.70;40.60
70076;DHT22;63241;51.056;3.698;2023-08-21T15:12:44;31.60;40.50
70076;DHT22;63241;51.056;3.698;2023-08-21T15:15:30;31.40;39.40
70076;DHT22;63241;51.056;3.698;2023-08-21T15:18:16;31.10;40.00
70076;DHT22;63241;51.056;3.698;2023-08-21T15:21:02;31.00;40.50
70076;DHT22;63241;51.056;3.698;2023-08-21T15:27:54;30.70;41.60
70076;DHT22;63241;51.056;3.698;2023-08-21T15:30:40;30.50;42.40
70076;DHT22;63241;51.056;3.698;2023-08-21T15:33:26;30.60;42.50
70076;DHT22;63241;51.056;3.698;2023-08-21T15:42:59;30.80;41.70
70076;DHT22;63241;51.056;3.698;2023-08-21T15:45:47;30.60;41.90
70076;DHT22;63241;51.056;3.698;2023-08-21T15:48:33;30.30;42.70
70076;DHT22;63241;51.056;3.698;2023-08-21T15:55:23;30.10;43.80
70076;DHT22;63241;51.056;3.698;2023-08-21T15:58:10;30.00;43.90
70076;DHT22;63241;51.056;3.698;2023-08-21T16:00:58;29.90;43.90
70076;DHT22;63241;51.056;3.698;2023-08-21T16:04:05;29.80;43.60
70076;DHT22;63241;51.056;3.698;2023-08-21T16:07:15;29.80;43.70
70076;DHT22;63241;51.056;3.698;2023-08-21T16:10:02;29.90;43.40
70076;DHT22;63241;51.056;3.698;2023-08-21T16:12:49;30.00;43.00
70076;DHT22;63241;51.056;3.698;2023-08-21T16:15:35;29.90;42.50
70076;DHT22;63241;51.056;3.698;2023-08-21T16:22:29;29.60;43.40
70076;DHT22;63241;51.056;3.698;2023-08-21T16:25:16;29.50;44.90
70076;DHT22;63241;51.056;3.698;2023-08-21T16:28:01;29.40;46.90
70076;DHT22;63241;51.056;3.698;2023-08-21T16:30:48;29.50;47.70
70076;DHT22;63241;51.056;3.698;2023-08-21T16:33:34;29.60;47.50
70076;DHT22;63241;51.056;3.698;2023-08-21T16:36:21;29.70;48.10
70076;DHT22;63241;51.056;3.698;2023-08-21T16:39:08;29.70;48.30
70076;DHT22;63241;51.056;3.698;2023-08-21T16:42:14;29.80;49.30
70076;DHT22;63241;51.056;3.698;2023-08-21T16:45:29;29.80;49.80
70076;DHT22;63241;51.056;3.698;2023-08-21T16:48:16;29.70;49.70
70076;DHT22;63241;51.056;3.698;2023-08-21T16:51:02;29.70;49.80
70076;DHT22;63241;51.056;3.698;2023-08-21T16:53:48;29.70;49.90
70076;DHT22;63241;51.056;3.698;2023-08-21T16:56:40;29.60;50.00
70076;DHT22;63241;51.056;3.698;2023-08-21T16:59:49;29.60;50.10
70076;DHT22;63241;51.056;3.698;2023-08-21T17:02:39;29.50;50.30
70076;DHT22;63241;51.056;3.698;2023-08-21T17:05:26;29.50;50.70
70076;DHT22;63241;51.056;3.698;2023-08-21T17:08:12;29.40;50.80
70076;DHT22;63241;51.056;3.698;2023-08-21T17:14:43;29.50;51.20
70076;DHT22;63241;51.056;3.698;2023-08-21T17:30:41;30.00;50.70
70076;DHT22;63241;51.056;3.698;2023-08-21T17:33:27;30.00;50.90
70076;DHT22;63241;51.056;3.698;2023-08-21T17:36:14;29.90;51.00
70076;DHT22;63241;51.056;3.698;2023-08-21T17:39:00;29.70;51.10
70076;DHT22;63241;51.056;3.698;2023-08-21T17:41:47;29.60;51.30
70076;DHT22;63241;51.056;3.698;2023-08-21T17:44:34;29.50;51.50
70076;DHT22;63241;51.056;3.698;2023-08-21T17:47:21;29.50;52.00
70076;DHT22;63241;51.056;3.698;2023-08-21T17:50:08;29.50;51.90
70076;DHT22;63241;51.056;3.698;2023-08-21T17:52:54;29.30;52.10
70076;DHT22;63241;51.056;3.698;2023-08-21T17:55:40;29.00;52.70
70076;DHT22;63241;51.056;3.698;2023-08-21T17:58:27;28.60;53.80
70076;DHT22;63241;51.056;3.698;2023-08-21T18:01:14;28.30;54.20
70076;DHT22;63241;51.056;3.698;2023-08-21T18:04:01;28.10;54.80
70076;DHT22;63241;51.056;3.698;2023-08-21T18:06:48;27.80;55.30
70076;DHT22;63241;51.056;3.698;2023-08-21T18:09:35;27.50;56.20
70076;DHT22;63241;51.056;3.698;2023-08-21T18:12:21;27.30;56.70
70076;DHT22;63241;51.056;3.698;2023-08-21T18:15:08;26.90;58.20
70076;DHT22;63241;51.056;3.698;2023-08-21T18:17:55;26.60;58.90
70076;DHT22;63241;51.056;3.698;2023-08-21T18:23:36;26.20;59.70
70076;DHT22;63241;51.056;3.698;2023-08-21T18:26:23;26.10;60.00
70076;DHT22;63241;51.056;3.698;2023-08-21T18:29:10;25.90;61.20
70076;DHT22;63241;51.056;3.698;2023-08-21T18:31:56;25.70;61.40
70076;DHT22;63241;51.056;3.698;2023-08-21T18:34:42;25.50;62.50
70076;DHT22;63241;51.056;3.698;2023-08-21T18:37:29;25.30;63.60
70076;DHT22;63241;51.056;3.698;2023-08-21T18:40:15;25.10;64.10
70076;DHT22;63241;51.056;3.698;2023-08-21T18:43:02;25.00;64.90
70076;DHT22;63241;51.056;3.698;2023-08-21T18:45:48;24.80;65.40
70076;DHT22;63241;51.056;3.698;2023-08-21T18:48:36;24.60;66.90
70076;DHT22;63241;51.056;3.698;2023-08-21T18:51:22;24.30;68.10
70076;DHT22;63241;51.056;3.698;2023-08-21T19:38:19;22.30;79.70
70076;DHT22;63241;51.056;3.698;2023-08-21T19:41:12;22.20;80.10
70076;DHT22;63241;51.056;3.698;2023-08-21T19:43:58;22.10;81.50
70076;DHT22;63241;51.056;3.698;2023-08-21T19:46:45;22.00;82.10
70076;DHT22;63241;51.056;3.698;2023-08-21T19:49:31;22.00;82.60
70076;DHT22;63241;51.056;3.698;2023-08-21T19:52:18;21.90;82.90
70076;DHT22;63241;51.056;3.698;2023-08-21T19:55:04;21.80;83.30
70076;DHT22;63241;51.056;3.698;2023-08-21T19:57:51;21.70;86.30
70076;DHT22;63241;51.056;3.698;2023-08-21T20:00:40;21.60;87.10
70076;DHT22;63241;51.056;3.698;2023-08-21T20:03:26;21.60;87.30
70076;DHT22;63241;51.056;3.698;2023-08-21T20:06:15;21.50;90.20
70076;DHT22;63241;51.056;3.698;2023-08-21T20:09:02;21.40;90.70
70076;DHT22;63241;51.056;3.698;2023-08-21T20:11:48;21.30;91.10
70076;DHT22;63241;51.056;3.698;2023-08-21T20:14:34;21.30;91.00
70076;DHT22;63241;51.056;3.698;2023-08-21T20:17:20;21.20;91.10
70076;DHT22;63241;51.056;3.698;2023-08-21T20:20:08;21.20;92.00
70076;DHT22;63241;51.056;3.698;2023-08-21T20:22:55;21.10;92.00
70076;DHT22;63241;51.056;3.698;2023-08-21T20:25:42;21.10;92.20
70076;DHT22;63241;51.056;3.698;2023-08-21T20:28:28;21.10;93.10
70076;DHT22;63241;51.056;3.698;2023-08-21T20:31:15;21.10;93.10
70076;DHT22;63241;51.056;3.698;2023-08-21T20:34:01;21.10;93.20
70076;DHT22;63241;51.056;3.698;2023-08-21T20:36:47;21.10;93.10
70076;DHT22;63241;51.056;3.698;2023-08-21T20:39:33;21.10;93.30
70076;DHT22;63241;51.056;3.698;2023-08-21T20:42:20;21.00;93.10
70076;DHT22;63241;51.056;3.698;2023-08-21T20:45:07;21.00;93.20
70076;DHT22;63241;51.056;3.698;2023-08-21T20:47:54;20.90;94.00
70076;DHT22;63241;51.056;3.698;2023-08-21T20:50:40;20.80;94.10
70076;DHT22;63241;51.056;3.698;2023-08-21T20:53:27;20.80;94.00
70076;DHT22;63241;51.056;3.698;2023-08-21T20:56:14;20.70;94.10
70076;DHT22;63241;51.056;3.698;2023-08-21T20:59:01;20.70;94.10
70076;DHT22;63241;51.056;3.698;2023-08-21T21:01:47;20.70;94.20
70076;DHT22;63241;51.056;3.698;2023-08-21T21:04:33;20.60;94.60
70076;DHT22;63241;51.056;3.698;2023-08-21T21:07:20;20.60;95.60
70076;DHT22;63241;51.056;3.698;2023-08-21T21:10:07;20.50;95.30
70076;DHT22;63241;51.056;3.698;2023-08-21T21:12:54;20.60;95.80
70076;DHT22;63241;51.056;3.698;2023-08-21T21:15:40;20.60;95.50
70076;DHT22;63241;51.056;3.698;2023-08-21T21:18:26;20.60;95.30
70076;DHT22;63241;51.056;3.698;2023-08-21T21:21:13;20.60;95.50
70076;DHT22;63241;51.056;3.698;2023-08-21T21:23:59;20.70;95.30
70076;DHT22;63241;51.056;3.698;2023-08-21T21:26:45;20.70;96.10
70076;DHT22;63241;51.056;3.698;2023-08-21T21:29:32;20.60;96.40
70076;DHT22;63241;51.056;3.698;2023-08-21T21:32:18;20.60;96.40
70076;DHT22;63241;51.056;3.698;2023-08-21T21:35:04;20.60;96.20
70076;DHT22;63241;51.056;3.698;2023-08-21T21:37:51;20.60;96.20
70076;DHT22;63241;51.056;3.698;2023-08-21T21:40:41;20.60;96.10
70076;DHT22;63241;51.056;3.698;2023-08-21T21:43:28;20.60;96.00
70076;DHT22;63241;51.056;3.698;2023-08-21T21:46:19;20.60;95.90
70076;DHT22;63241;51.056;3.698;2023-08-21T21:49:04;20.60;96.40
70076;DHT22;63241;51.056;3.698;2023-08-21T21:51:51;20.60;96.20
70076;DHT22;63241;51.056;3.698;2023-08-21T21:54:37;20.60;96.10
70076;DHT22;63241;51.056;3.698;2023-08-21T21:57:23;20.50;96.30
70076;DHT22;63241;51.056;3.698;2023-08-21T22:00:10;20.50;96.30
70076;DHT22;63241;51.056;3.698;2023-08-21T22:02:56;20.40;96.30
70076;DHT22;63241;51.056;3.698;2023-08-21T22:05:42;20.30;96.40
70076;DHT22;63241;51.056;3.698;2023-08-21T22:08:28;20.20;96.60
70076;DHT22;63241;51.056;3.698;2023-08-21T22:11:15;20.10;96.80
70076;DHT22;63241;51.056;3.698;2023-08-21T22:14:02;20.10;97.10
70076;DHT22;63241;51.056;3.698;2023-08-21T22:16:50;20.00;97.10
70076;DHT22;63241;51.056;3.698;2023-08-21T22:19:36;20.00;97.20
70076;DHT22;63241;51.056;3.698;2023-08-21T22:22:24;19.90;97.50
70076;DHT22;63241;51.056;3.698;2023-08-21T22:25:10;19.90;97.60
70076;DHT22;63241;51.056;3.698;2023-08-21T23:59:01;19.70;99.90
